Dallas, Texas
Current Conditions -  °F | °C
As of 2:53 PM on Sunday 23 Nov 2014 (Local Time) from KDAL Reporting Station
Few Clouds Few Clouds  
Wind Chill: 77°   Ceiling: Unl
Heat Index: 78°   Visibility: 10mi
Dew Point: 41°   Wind: 17mph
Humidity: 28%   Direction: 260°W
Pressure: 29.38"   Gusts: 21mph
Location:  32.78°N, 96.79°W
Report Text: KDAL 232053Z 26015G18KT 10SM FEW080 25/05 A2938 RMK AO2 SLP945 T02500050 56017
Loading
Personal Weather Stations






























Interactive Weather Map New forecast layout! Learn more

10-Day Weather Forecast

Advertisements
Track Severe Weather on mobile